createdAt,value
2023-03-06T00:01:00.665Z,48.00
2023-03-06T00:03:49.595Z,48.00
2023-03-06T00:06:38.631Z,47.88
2023-03-06T00:09:28.821Z,48.34
2023-03-06T00:12:17.631Z,48.00
2023-03-06T00:17:56.003Z,48.09
2023-03-06T00:20:46.087Z,47.83
2023-03-06T00:23:35.047Z,48.25
2023-03-06T00:26:25.319Z,48.30
2023-03-06T00:29:14.203Z,48.00
2023-03-06T00:32:03.332Z,47.96
2023-03-06T00:34:52.517Z,48.11
2023-03-06T00:37:41.864Z,48.60
2023-03-06T00:40:31.118Z,48.33
2023-03-06T00:43:21.264Z,48.30
2023-03-06T00:46:10.267Z,48.37
2023-03-06T00:49:00.644Z,48.14
2023-03-06T00:51:49.564Z,48.19
2023-03-06T00:54:38.510Z,48.01
2023-03-06T00:57:28.333Z,48.17
2023-03-06T01:00:20.481Z,48.14
2023-03-06T01:03:09.243Z,48.18
2023-03-06T01:05:58.131Z,47.95
2023-03-06T01:08:47.033Z,47.73
2023-03-06T01:11:36.000Z,48.08
2023-03-06T01:14:24.971Z,48.16
2023-03-06T01:17:16.001Z,48.14
2023-03-06T01:20:05.569Z,48.20
2023-03-06T01:22:56.605Z,48.06
2023-03-06T01:25:45.386Z,48.07
2023-03-06T01:28:35.261Z,47.94
2023-03-06T01:31:24.680Z,48.30
2023-03-06T01:34:14.848Z,48.25
2023-03-06T01:37:03.589Z,48.34
2023-03-06T01:39:52.376Z,48.06
2023-03-06T01:42:41.514Z,48.32
2023-03-06T01:46:07.671Z,47.94
2023-03-06T01:48:58.512Z,48.04
2023-03-06T01:51:51.794Z,48.19
2023-03-06T01:54:44.245Z,48.21
2023-03-06T01:57:35.275Z,48.21
2023-03-06T02:00:27.067Z,48.08
2023-03-06T02:03:17.669Z,48.15
2023-03-06T02:06:06.766Z,48.08
2023-03-06T02:08:58.023Z,48.20
2023-03-06T02:11:47.246Z,48.52
2023-03-06T02:14:37.000Z,48.49
2023-03-06T02:17:26.306Z,48.55
2023-03-06T02:20:19.090Z,48.42
2023-03-06T02:23:10.546Z,48.51
2023-03-06T02:26:01.672Z,48.40
2023-03-06T02:28:50.446Z,48.33
2023-03-06T02:31:39.288Z,48.32
2023-03-06T02:34:59.310Z,48.32
2023-03-06T02:37:48.879Z,48.82
2023-03-06T02:40:38.144Z,48.68
2023-03-06T02:43:31.385Z,48.51
2023-03-06T02:46:20.474Z,48.75
2023-03-06T02:49:09.441Z,48.82
2023-03-06T02:51:58.630Z,48.77
2023-03-06T02:54:47.563Z,48.62
2023-03-06T02:57:36.493Z,48.78
2023-03-06T03:00:27.317Z,48.31
2023-03-06T03:03:16.307Z,48.54
2023-03-06T03:06:06.388Z,48.38
2023-03-06T03:08:55.553Z,48.45
2023-03-06T03:11:51.994Z,48.35
2023-03-06T03:14:40.799Z,48.33
2023-03-06T03:17:31.784Z,48.40
2023-03-06T03:20:22.980Z,48.54
2023-03-06T03:23:11.840Z,48.53
2023-03-06T03:26:08.666Z,48.73
2023-03-06T03:28:57.770Z,48.65
2023-03-06T03:31:46.710Z,48.42
2023-03-06T03:34:36.898Z,48.69
2023-03-06T03:37:25.549Z,48.38
2023-03-06T03:40:15.198Z,48.58
2023-03-06T03:43:03.824Z,48.57
2023-03-06T03:45:54.314Z,48.50
2023-03-06T03:48:42.960Z,48.82
2023-03-06T03:51:33.239Z,48.70
2023-03-06T03:54:21.888Z,48.70
2023-03-06T03:57:24.692Z,48.81
2023-03-06T04:00:16.643Z,48.71
2023-03-06T04:03:05.757Z,48.55
2023-03-06T04:05:55.489Z,49.06
2023-03-06T04:08:45.556Z,48.92
2023-03-06T04:11:34.775Z,49.03
2023-03-06T04:14:23.653Z,49.02
2023-03-06T04:17:12.268Z,49.13
2023-03-06T04:20:00.962Z,49.06
2023-03-06T04:22:49.907Z,49.05
2023-03-06T04:25:40.272Z,49.29
2023-03-06T04:28:29.591Z,48.86
2023-03-06T04:31:26.942Z,48.64
2023-03-06T04:34:16.686Z,49.10
2023-03-06T04:37:05.959Z,48.89
2023-03-06T04:40:03.244Z,49.02
2023-03-06T04:42:54.642Z,48.93
2023-03-06T04:45:43.430Z,48.63
2023-03-06T04:48:36.123Z,48.89
2023-03-06T04:51:25.367Z,48.49
2023-03-06T04:54:14.251Z,48.57
2023-03-06T04:57:09.984Z,48.47
2023-03-06T05:00:10.325Z,48.60
2023-03-06T05:03:12.221Z,48.36
2023-03-06T05:06:02.311Z,48.32
2023-03-06T05:08:53.564Z,48.52
2023-03-06T05:11:42.258Z,48.27
2023-03-06T05:14:31.407Z,48.19
2023-03-06T05:17:21.928Z,48.38
2023-03-06T05:20:12.234Z,48.53
2023-03-06T05:23:00.855Z,48.58
2023-03-06T05:25:49.584Z,48.36
2023-03-06T05:28:38.255Z,48.52
2023-03-06T05:34:19.190Z,48.10
2023-03-06T05:37:08.757Z,48.35
2023-03-06T05:39:57.379Z,48.18
2023-03-06T05:42:48.883Z,48.25
2023-03-06T05:45:38.115Z,48.62
2023-03-06T05:48:26.932Z,48.67
2023-03-06T05:51:17.018Z,48.37
2023-03-06T05:54:05.888Z,48.33
2023-03-06T05:56:54.871Z,47.50
2023-03-06T05:59:43.648Z,47.39
2023-03-06T06:02:32.595Z,47.28
2023-03-06T06:05:22.442Z,46.91
2023-03-06T06:08:21.264Z,46.90
2023-03-06T06:11:13.155Z,46.19
2023-03-06T06:14:06.943Z,46.07
2023-03-06T06:16:58.951Z,45.95
2023-03-06T06:19:49.162Z,45.44
2023-03-06T06:25:55.695Z,45.27
2023-03-06T06:29:00.115Z,45.48
2023-03-06T06:32:00.891Z,44.92
2023-03-06T06:34:56.191Z,45.08
2023-03-06T06:37:45.013Z,44.66
2023-03-06T06:40:33.770Z,44.69
2023-03-06T06:43:26.355Z,44.50
2023-03-06T06:47:09.617Z,44.82
2023-03-06T06:49:33.360Z,43.84
2023-03-06T06:52:27.594Z,43.63
2023-03-06T06:55:29.445Z,43.86
2023-03-06T06:58:31.304Z,43.98
2023-03-06T07:01:27.785Z,44.01
2023-03-06T07:04:18.155Z,44.16
2023-03-06T07:07:11.513Z,44.12
2023-03-06T07:10:01.172Z,43.72
2023-03-06T07:12:50.036Z,43.82
2023-03-06T07:15:44.275Z,43.31
2023-03-06T07:18:33.187Z,43.18
2023-03-06T07:21:25.161Z,43.47
2023-03-06T07:24:16.232Z,43.00
2023-03-06T07:27:06.012Z,42.74
2023-03-06T07:29:54.919Z,42.95
2023-03-06T07:32:49.089Z,43.00
2023-03-06T07:35:37.997Z,43.00
2023-03-06T07:38:30.076Z,42.64
2023-03-06T07:41:22.912Z,42.78
2023-03-06T07:44:22.219Z,42.57
2023-03-06T07:47:22.162Z,42.70
2023-03-06T07:50:15.032Z,42.56
2023-03-06T07:53:08.334Z,42.61
2023-03-06T07:56:00.140Z,42.33
2023-03-06T07:58:50.700Z,42.68
2023-03-06T08:01:51.438Z,42.53
2023-03-06T08:04:51.163Z,42.75
2023-03-06T08:07:50.306Z,42.64
2023-03-06T08:10:39.387Z,42.47
2023-03-06T08:13:37.454Z,42.47
2023-03-06T08:16:30.752Z,42.12
2023-03-06T08:19:19.746Z,42.16
2023-03-06T08:22:23.079Z,41.96
2023-03-06T08:25:20.746Z,42.19
2023-03-06T08:28:23.350Z,42.03
2023-03-06T08:31:21.623Z,41.90
2023-03-06T08:34:21.306Z,42.00
2023-03-06T08:37:10.200Z,41.66
2023-03-06T08:40:11.057Z,42.04
2023-03-06T08:43:16.173Z,41.57
2023-03-06T08:46:13.638Z,41.69
2023-03-06T08:49:02.908Z,41.61
2023-03-06T08:51:57.960Z,41.81
2023-03-06T08:55:00.717Z,41.88
2023-03-06T08:57:49.923Z,41.16
2023-03-06T09:00:54.856Z,41.31
2023-03-06T09:03:44.062Z,41.36
2023-03-06T09:06:48.429Z,41.56
2023-03-06T09:09:37.424Z,41.71
2023-03-06T09:12:47.258Z,41.47
2023-03-06T09:15:40.185Z,41.44
2023-03-06T09:18:30.590Z,41.79
2023-03-06T09:21:19.989Z,41.20
2023-03-06T09:24:23.216Z,41.39
2023-03-06T09:27:24.819Z,41.41
2023-03-06T09:30:14.552Z,41.17
2023-03-06T09:33:33.527Z,41.00
2023-03-06T09:36:45.689Z,41.10
2023-03-06T09:39:45.776Z,41.05
2023-03-06T09:42:37.116Z,41.04
2023-03-06T09:45:31.020Z,40.95
2023-03-06T09:48:32.366Z,40.90
2023-03-06T09:54:37.029Z,41.17
2023-03-06T09:57:32.207Z,40.86
2023-03-06T10:00:22.684Z,40.98
2023-03-06T10:03:25.670Z,40.88
2023-03-06T10:06:25.480Z,40.71
2023-03-06T10:09:32.086Z,40.59
2023-03-06T10:12:29.719Z,40.82
2023-03-06T10:15:21.628Z,40.57
2023-03-06T10:18:17.090Z,40.72
2023-03-06T10:21:23.938Z,40.26
2023-03-06T10:24:25.065Z,40.23
2023-03-06T10:27:24.942Z,40.06
2023-03-06T10:30:26.596Z,40.36
2023-03-06T10:33:25.006Z,40.28
2023-03-06T10:36:22.683Z,40.51
2023-03-06T10:39:30.752Z,40.15
2023-03-06T10:42:35.761Z,40.91
2023-03-06T10:45:40.523Z,40.71
2023-03-06T10:48:38.811Z,40.50
2023-03-06T10:51:30.530Z,40.35
2023-03-06T10:54:21.210Z,40.47
2023-03-06T10:57:34.757Z,41.28
2023-03-06T11:00:42.367Z,41.70
2023-03-06T11:03:44.124Z,42.01
2023-03-06T11:06:45.987Z,42.03
2023-03-06T11:09:39.426Z,42.16
2023-03-06T11:12:39.637Z,42.55
2023-03-06T11:15:28.960Z,43.48
2023-03-06T11:18:35.304Z,43.15
2023-03-06T11:21:31.313Z,43.15
2023-03-06T11:27:30.430Z,42.93
2023-03-06T11:30:20.827Z,43.25
2023-03-06T11:33:18.331Z,43.21
2023-03-06T11:36:15.354Z,43.13
2023-03-06T11:39:06.081Z,43.12
2023-03-06T11:42:02.428Z,43.21
2023-03-06T11:44:58.295Z,43.08
2023-03-06T11:47:50.909Z,42.87
2023-03-06T11:50:43.314Z,42.77
2023-03-06T11:53:35.788Z,42.87
2023-03-06T11:57:00.916Z,42.42
2023-03-06T12:00:19.365Z,42.67
2023-03-06T12:03:29.235Z,42.56
2023-03-06T12:06:26.963Z,42.76
2023-03-06T12:09:43.714Z,42.67
2023-03-06T12:13:05.785Z,42.64
2023-03-06T12:16:08.454Z,42.36
2023-03-06T12:19:12.090Z,42.58
2023-03-06T12:22:14.683Z,42.37
2023-03-06T12:25:38.228Z,42.55
2023-03-06T12:28:45.416Z,42.29
2023-03-06T12:31:54.719Z,42.19
2023-03-06T12:34:55.855Z,41.96
2023-03-06T12:37:56.370Z,41.78
2023-03-06T12:40:59.675Z,41.69
2023-03-06T12:44:05.896Z,41.33
2023-03-06T12:47:02.799Z,41.30
2023-03-06T12:50:06.313Z,41.03
2023-03-06T12:56:11.246Z,41.48
2023-03-06T12:59:03.205Z,41.24
2023-03-06T13:02:11.661Z,40.83
2023-03-06T13:09:00.954Z,40.75
2023-03-06T13:12:25.034Z,41.00
2023-03-06T13:15:35.884Z,41.23
2023-03-06T13:18:50.879Z,41.31
2023-03-06T13:22:09.155Z,40.89
2023-03-06T13:25:53.114Z,40.41
2023-03-06T13:28:51.193Z,40.49
2023-03-06T13:32:32.775Z,40.92
2023-03-06T13:35:58.267Z,40.83
2023-03-06T13:39:15.593Z,40.83
2023-03-06T13:42:18.526Z,40.47
2023-03-06T13:45:19.773Z,40.83
2023-03-06T13:48:43.082Z,40.57
2023-03-06T13:51:45.968Z,40.69
2023-03-06T13:54:48.113Z,41.03
2023-03-06T13:57:47.122Z,40.97
2023-03-06T14:01:46.507Z,41.29
2023-03-06T14:04:39.264Z,41.50
2023-03-06T14:07:32.240Z,41.84
2023-03-06T14:10:35.543Z,42.39
2023-03-06T14:13:53.597Z,42.89
2023-03-06T14:16:55.143Z,43.23
2023-03-06T14:19:59.542Z,42.92
2023-03-06T14:23:01.905Z,43.27
2023-03-06T14:26:02.133Z,42.63
2023-03-06T14:28:59.725Z,41.48
2023-03-06T14:32:00.357Z,41.23
2023-03-06T14:35:03.422Z,40.91
2023-03-06T14:38:04.953Z,41.14
2023-03-06T14:41:08.056Z,40.87
2023-03-06T14:44:11.099Z,40.92
2023-03-06T14:47:18.894Z,40.69
2023-03-06T14:50:31.017Z,41.56
2023-03-06T14:53:24.122Z,41.68
2023-03-06T14:56:31.356Z,35.35
2023-03-06T14:59:28.642Z,32.40
2023-03-06T15:02:33.443Z,31.53
2023-03-06T15:05:38.645Z,34.49
2023-03-06T15:08:35.012Z,36.49
2023-03-06T15:11:37.824Z,37.38
2023-03-06T15:14:36.158Z,37.56
2023-03-06T15:17:36.226Z,37.46
2023-03-06T15:20:57.341Z,38.34
2023-03-06T15:24:01.597Z,38.17
2023-03-06T15:27:00.175Z,37.86
2023-03-06T15:33:06.352Z,38.13
2023-03-06T15:36:07.807Z,38.12
2023-03-06T15:39:10.554Z,38.14
2023-03-06T15:42:10.194Z,38.32
2023-03-06T15:45:15.823Z,38.37
2023-03-06T15:51:51.011Z,38.15
2023-03-06T15:54:40.172Z,38.27
2023-03-06T15:57:30.693Z,37.69
2023-03-06T16:03:43.985Z,39.06
2023-03-06T16:06:43.382Z,39.15
2023-03-06T16:09:45.851Z,39.64
2023-03-06T16:12:42.972Z,39.74
2023-03-06T16:15:35.880Z,40.23
2023-03-06T16:18:24.770Z,40.05
2023-03-06T16:24:19.492Z,40.26
2023-03-06T16:27:18.781Z,40.49
2023-03-06T16:30:17.476Z,40.46
2023-03-06T16:33:09.331Z,40.55
2023-03-06T16:35:59.822Z,41.14
2023-03-06T16:38:51.840Z,41.16
2023-03-06T16:41:40.870Z,41.05
2023-03-06T16:44:44.955Z,41.26
2023-03-06T16:47:41.482Z,41.27
2023-03-06T16:50:39.058Z,41.37
2023-03-06T16:53:28.237Z,41.56
2023-03-06T16:56:29.962Z,41.67
2023-03-06T16:59:23.188Z,41.70
2023-03-06T17:02:14.444Z,42.08
2023-03-06T17:05:07.810Z,42.31
2023-03-06T17:07:56.728Z,42.08
2023-03-06T17:10:55.092Z,41.82
2023-03-06T17:13:43.938Z,42.06
2023-03-06T17:16:33.701Z,41.91
2023-03-06T17:19:24.789Z,41.78
2023-03-06T17:22:27.714Z,41.91
2023-03-06T17:25:20.733Z,42.00
2023-03-06T17:28:09.411Z,41.61
2023-03-06T17:31:12.128Z,42.10
2023-03-06T17:34:02.284Z,42.04
2023-03-06T17:36:56.476Z,42.54
2023-03-06T17:39:48.180Z,42.50
2023-03-06T17:42:37.086Z,42.53
2023-03-06T17:45:29.204Z,43.02
2023-03-06T17:48:18.999Z,43.19
2023-03-06T17:51:19.505Z,43.17
2023-03-06T17:54:14.232Z,43.32
2023-03-06T17:57:03.660Z,43.03
2023-03-06T18:00:07.439Z,43.47
2023-03-06T18:02:56.327Z,43.21
2023-03-06T18:05:48.195Z,42.94
2023-03-06T18:08:41.064Z,43.19
2023-03-06T18:11:34.376Z,42.64
2023-03-06T18:14:24.474Z,42.64
2023-03-06T18:17:13.560Z,42.89
2023-03-06T18:20:04.995Z,41.88
2023-03-06T18:23:04.380Z,42.67
2023-03-06T18:25:53.405Z,42.88
2023-03-06T18:28:49.346Z,42.63
2023-03-06T18:31:48.523Z,42.98
2023-03-06T18:34:38.380Z,43.39
2023-03-06T18:37:28.326Z,43.09
2023-03-06T18:40:17.192Z,43.52
2023-03-06T18:43:10.608Z,43.42
2023-03-06T18:46:00.834Z,43.63
2023-03-06T18:48:49.722Z,42.99
2023-03-06T18:51:38.510Z,43.08
2023-03-06T18:54:28.690Z,43.08
2023-03-06T18:57:17.343Z,43.13
2023-03-06T19:00:07.704Z,43.10
2023-03-06T19:02:57.725Z,42.99
2023-03-06T19:05:48.391Z,42.92
2023-03-06T19:08:38.370Z,43.18
2023-03-06T19:11:37.596Z,43.30
2023-03-06T19:14:26.538Z,43.52
2023-03-06T19:17:15.308Z,43.47
2023-03-06T19:20:05.863Z,43.75
2023-03-06T19:22:54.974Z,43.50
2023-03-06T19:25:45.494Z,43.25
2023-03-06T19:28:34.105Z,43.64
2023-03-06T19:31:25.004Z,43.87
2023-03-06T19:34:13.771Z,43.81
2023-03-06T19:37:08.732Z,43.87
2023-03-06T19:40:01.893Z,43.89
2023-03-06T19:42:53.260Z,44.18
2023-03-06T19:45:44.305Z,43.69
2023-03-06T19:48:34.977Z,43.98
2023-03-06T19:51:23.780Z,44.10
2023-03-06T19:54:23.521Z,44.09
2023-03-06T19:57:14.868Z,44.03
2023-03-06T20:00:06.360Z,43.93
2023-03-06T20:03:05.319Z,43.91
2023-03-06T20:05:54.061Z,44.02
2023-03-06T20:08:43.209Z,43.73
2023-03-06T20:11:33.427Z,43.67
2023-03-06T20:14:22.073Z,43.31
2023-03-06T20:17:10.785Z,43.15
2023-03-06T20:19:59.545Z,43.25
2023-03-06T20:22:48.743Z,42.83
2023-03-06T20:25:37.933Z,42.74
2023-03-06T20:28:28.447Z,42.69
2023-03-06T20:31:19.723Z,42.71
2023-03-06T20:34:08.793Z,42.90
2023-03-06T20:36:58.739Z,42.51
2023-03-06T20:39:47.851Z,42.52
2023-03-06T20:42:42.234Z,42.72
2023-03-06T20:45:32.304Z,43.50
2023-03-06T20:48:21.901Z,44.13
2023-03-06T20:51:20.003Z,43.90
2023-03-06T20:54:10.772Z,43.35
2023-03-06T20:56:59.667Z,43.33
2023-03-06T20:59:48.515Z,43.14
2023-03-06T21:02:38.902Z,43.38
2023-03-06T21:05:32.684Z,43.63
2023-03-06T21:08:21.486Z,43.09
2023-03-06T21:11:11.121Z,43.08
2023-03-06T21:14:00.849Z,44.58
2023-03-06T21:16:49.545Z,44.59
2023-03-06T21:19:39.594Z,45.08
2023-03-06T21:22:30.202Z,45.24
2023-03-06T21:25:19.465Z,44.98
2023-03-06T21:28:08.478Z,44.91
2023-03-06T21:30:57.386Z,45.31
2023-03-06T21:33:46.948Z,45.32
2023-03-06T21:36:36.876Z,45.44
2023-03-06T21:39:25.798Z,44.85
2023-03-06T21:42:14.613Z,44.69
2023-03-06T21:45:05.944Z,45.04
2023-03-06T21:47:54.980Z,45.16
2023-03-06T21:50:43.976Z,45.31
2023-03-06T21:53:34.066Z,45.04
2023-03-06T21:56:25.011Z,45.43
2023-03-06T21:59:13.749Z,44.93
2023-03-06T22:02:02.861Z,45.18
2023-03-06T22:04:52.658Z,45.37
2023-03-06T22:07:41.500Z,45.40
2023-03-06T22:10:31.765Z,45.71
2023-03-06T22:13:20.785Z,45.15
2023-03-06T22:16:11.003Z,45.47
2023-03-06T22:19:00.015Z,45.53
2023-03-06T22:21:48.676Z,45.76
2023-03-06T22:24:37.511Z,45.63
2023-03-06T22:27:27.823Z,45.34
2023-03-06T22:30:17.838Z,45.52
2023-03-06T22:33:09.407Z,45.53
2023-03-06T22:36:05.453Z,45.81
2023-03-06T22:38:56.464Z,45.76
2023-03-06T22:41:45.153Z,45.52
2023-03-06T22:44:35.216Z,45.77
2023-03-06T22:47:23.936Z,45.61
2023-03-06T22:50:13.793Z,45.52
2023-03-06T22:55:50.868Z,45.65
2023-03-06T22:58:40.798Z,45.78
2023-03-06T23:01:32.209Z,46.08
2023-03-06T23:04:20.890Z,46.17
2023-03-06T23:07:10.009Z,46.21
2023-03-06T23:09:59.035Z,46.29
2023-03-06T23:12:47.657Z,46.30
2023-03-06T23:15:37.592Z,45.79
2023-03-06T23:18:29.617Z,46.47
2023-03-06T23:21:19.748Z,46.38
2023-03-06T23:24:08.686Z,46.49
2023-03-06T23:26:57.504Z,46.35
2023-03-06T23:29:46.244Z,46.57
2023-03-06T23:32:35.840Z,46.14
2023-03-06T23:35:25.953Z,46.45
2023-03-06T23:38:14.721Z,46.34
2023-03-06T23:41:05.002Z,46.02
2023-03-06T23:43:55.292Z,46.32
2023-03-06T23:46:44.214Z,45.83
2023-03-06T23:49:32.911Z,46.29
2023-03-06T23:52:23.289Z,46.37
2023-03-06T23:55:13.294Z,46.41
2023-03-06T23:58:01.916Z,46.25
